createdAt,value
2023-03-04T00:02:09.906Z,102779.75
2023-03-04T00:04:36.600Z,102783.50
2023-03-04T00:07:03.381Z,102782.72
2023-03-04T00:09:29.808Z,102782.72
2023-03-04T00:11:56.461Z,102781.09
2023-03-04T00:14:22.902Z,102780.03
2023-03-04T00:16:49.486Z,102786.47
2023-03-04T00:19:16.221Z,102784.59
2023-03-04T00:21:42.660Z,102781.66
2023-03-04T00:24:09.177Z,102778.41
2023-03-04T00:26:35.574Z,102777.34
2023-03-04T00:29:02.276Z,102780.31
2023-03-04T00:31:28.918Z,102776.28
2023-03-04T00:33:55.386Z,102783.00
2023-03-04T00:36:22.225Z,102770.38
2023-03-04T00:38:48.598Z,102783.28
2023-03-04T00:41:15.066Z,102781.94
2023-03-04T00:43:41.561Z,102779.50
2023-03-04T00:46:08.237Z,102777.88
2023-03-04T00:48:34.829Z,102770.94
2023-03-04T00:51:01.306Z,102783.78
2023-03-04T00:53:27.725Z,102777.88
2023-03-04T00:55:54.188Z,102774.41
2023-03-04T00:58:20.784Z,102773.88
2023-03-04T01:00:47.467Z,102781.34
2023-03-04T01:03:14.214Z,102785.13
2023-03-04T01:05:40.888Z,102783.50
2023-03-04T01:08:07.487Z,102787.28
2023-03-04T01:10:34.205Z,102782.72
2023-03-04T01:13:00.738Z,102789.13
2023-03-04T01:15:27.892Z,102779.50
2023-03-04T01:17:54.951Z,102780.56
2023-03-04T01:20:21.428Z,102784.03
2023-03-04T01:22:47.889Z,102780.03
2023-03-04T01:25:14.447Z,102777.34
2023-03-04T01:27:41.019Z,102771.44
2023-03-04T01:30:07.994Z,102775.19
2023-03-04T01:32:34.508Z,102756.38
2023-03-04T01:35:00.988Z,102759.88
2023-03-04T01:37:27.433Z,102759.09
2023-03-04T01:39:53.986Z,102754.00
2023-03-04T01:42:22.839Z,102755.34
2023-03-04T01:44:51.160Z,102758.31
2023-03-04T01:47:19.349Z,102751.84
2023-03-04T01:49:51.107Z,102747.81
2023-03-04T01:52:17.601Z,102742.72
2023-03-04T01:54:44.125Z,102740.81
2023-03-04T01:57:24.003Z,102742.19
2023-03-04T02:00:15.400Z,102733.59
2023-03-04T02:02:42.229Z,102735.72
2023-03-04T02:05:09.060Z,102727.97
2023-03-04T02:07:35.723Z,102722.59
2023-03-04T02:10:02.451Z,102722.03
2023-03-04T02:12:29.073Z,102718.28
2023-03-04T02:14:56.075Z,102728.50
2023-03-04T02:17:29.473Z,102722.59
2023-03-04T02:20:11.388Z,102713.72
2023-03-04T02:22:43.581Z,102712.13
2023-03-04T02:25:20.979Z,102710.50
2023-03-04T02:27:47.465Z,102712.38
2023-03-04T02:30:14.377Z,102702.69
2023-03-04T02:32:40.975Z,102711.03
2023-03-04T02:35:17.051Z,102705.66
2023-03-04T02:37:43.776Z,102698.69
2023-03-04T02:40:18.826Z,102699.75
2023-03-04T02:42:45.971Z,102697.06
2023-03-04T02:45:35.393Z,102699.75
2023-03-04T02:48:02.527Z,102695.19
2023-03-04T02:50:33.812Z,102690.09
2023-03-04T02:53:00.308Z,102689.81
2023-03-04T02:55:26.901Z,102690.38
2023-03-04T02:57:53.598Z,102688.50
2023-03-04T03:00:20.236Z,102690.66
2023-03-04T03:02:46.705Z,102692.50
2023-03-04T03:05:13.369Z,102690.09
2023-03-04T03:07:39.802Z,102679.09
2023-03-04T03:10:06.413Z,102673.19
2023-03-04T03:12:33.044Z,102677.22
2023-03-04T03:14:59.463Z,102674.53
2023-03-04T03:17:25.887Z,102670.50
2023-03-04T03:19:52.348Z,102669.72
2023-03-04T03:22:18.750Z,102665.41
2023-03-04T03:24:45.817Z,102674.53
2023-03-04T03:27:12.270Z,102664.88
2023-03-04T03:29:38.768Z,102667.00
2023-03-04T03:32:05.719Z,102655.50
2023-03-04T03:34:32.224Z,102657.63
2023-03-04T03:36:58.912Z,102657.63
2023-03-04T03:39:25.588Z,102656.03
2023-03-04T03:41:51.957Z,102659.75
2023-03-04T03:44:18.408Z,102657.06
2023-03-04T03:46:45.091Z,102657.34
2023-03-04T03:49:11.573Z,102662.72
2023-03-04T03:51:38.990Z,102659.50
2023-03-04T03:54:06.872Z,102657.63
2023-03-04T03:56:33.382Z,102660.31
2023-03-04T03:59:00.086Z,102666.75
2023-03-04T04:01:26.606Z,102668.34
2023-03-04T04:03:53.333Z,102664.06
2023-03-04T04:06:19.821Z,102667.03
2023-03-04T04:08:46.456Z,102668.34
2023-03-04T04:11:13.721Z,102669.72
2023-03-04T04:13:40.108Z,102670.25
2023-03-04T04:16:07.175Z,102670.75
2023-03-04T04:18:33.785Z,102671.31
2023-03-04T04:21:00.456Z,102675.88
2023-03-04T04:23:26.947Z,102664.88
2023-03-04T04:25:55.572Z,102669.69
2023-03-04T04:28:22.034Z,102668.06
2023-03-04T04:30:48.491Z,102674.53
2023-03-04T04:33:15.075Z,102671.31
2023-03-04T04:35:41.865Z,102671.59
2023-03-04T04:38:09.304Z,102670.75
2023-03-04T04:40:36.661Z,102672.13
2023-03-04T04:43:03.904Z,102677.47
2023-03-04T04:45:30.501Z,102670.75
2023-03-04T04:47:57.459Z,102669.97
2023-03-04T04:50:25.447Z,102675.59
2023-03-04T04:52:52.612Z,102677.47
2023-03-04T04:55:19.254Z,102678.53
2023-03-04T04:57:45.663Z,102674.25
2023-03-04T05:00:12.876Z,102674.25
2023-03-04T05:02:39.784Z,102669.94
2023-03-04T05:05:07.577Z,102669.94
2023-03-04T05:07:34.450Z,102666.47
2023-03-04T05:10:01.092Z,102670.75
2023-03-04T05:12:27.508Z,102668.38
2023-03-04T05:14:54.086Z,102669.44
2023-03-04T05:17:20.569Z,102665.41
2023-03-04T05:19:47.207Z,102665.66
2023-03-04T05:22:13.785Z,102666.75
2023-03-04T05:24:40.331Z,102667.03
2023-03-04T05:27:06.769Z,102669.97
2023-03-04T05:29:33.166Z,102674.81
2023-03-04T05:31:59.657Z,102668.06
2023-03-04T05:34:26.316Z,102671.06
2023-03-04T05:36:52.724Z,102672.13
2023-03-04T05:39:19.143Z,102666.22
2023-03-04T05:41:45.733Z,102678.28
2023-03-04T05:44:12.245Z,102675.84
2023-03-04T05:46:38.866Z,102672.38
2023-03-04T05:49:05.368Z,102669.97
2023-03-04T05:51:32.106Z,102672.91
2023-03-04T05:53:58.496Z,102675.59
2023-03-04T05:56:25.009Z,102670.47
2023-03-04T05:58:51.566Z,102666.22
2023-03-04T06:01:18.262Z,102675.31
2023-03-04T06:03:45.123Z,102669.16
2023-03-04T06:06:11.612Z,102668.34
2023-03-04T06:08:38.283Z,102675.56
2023-03-04T06:11:05.831Z,102673.97
2023-03-04T06:13:32.614Z,102667.78
2023-03-04T06:15:59.936Z,102670.78
2023-03-04T06:18:28.099Z,102666.19
2023-03-04T06:20:58.884Z,102668.34
2023-03-04T06:23:25.866Z,102673.72
2023-03-04T06:25:56.499Z,102670.50
2023-03-04T06:28:23.501Z,102674.00
2023-03-04T06:30:53.081Z,102684.19
2023-03-04T06:33:20.204Z,102675.34
2023-03-04T06:35:46.707Z,102672.66
2023-03-04T06:38:13.158Z,102682.84
2023-03-04T06:40:39.835Z,102679.38
2023-03-04T06:43:06.432Z,102681.22
2023-03-04T06:45:32.871Z,102683.13
2023-03-04T06:47:59.626Z,102679.63
2023-03-04T06:50:26.070Z,102683.91
2023-03-04T06:52:52.858Z,102683.91
2023-03-04T06:55:20.128Z,102681.22
2023-03-04T06:57:48.516Z,102681.22
2023-03-04T07:00:15.842Z,102681.22
2023-03-04T07:02:42.334Z,102690.09
2023-03-04T07:05:10.690Z,102692.25
2023-03-04T07:07:37.982Z,102693.59
2023-03-04T07:10:04.894Z,102691.44
2023-03-04T07:12:31.384Z,102696.81
2023-03-04T07:14:57.986Z,102698.44
2023-03-04T07:17:24.459Z,102693.06
2023-03-04T07:19:50.941Z,102697.06
2023-03-04T07:22:17.368Z,102697.88
2023-03-04T07:24:44.037Z,102701.91
2023-03-04T07:27:10.730Z,102701.91
2023-03-04T07:29:37.098Z,102701.91
2023-03-04T07:32:08.195Z,102701.06
2023-03-04T07:34:34.983Z,102694.03
2023-03-04T07:37:01.473Z,102695.19
2023-03-04T07:39:27.917Z,102696.28
2023-03-04T07:41:54.295Z,102703.84
2023-03-04T07:44:21.713Z,102697.81
2023-03-04T07:46:48.072Z,102700.50
2023-03-04T07:49:14.500Z,102701.84
2023-03-04T07:51:41.066Z,102699.88
2023-03-04T07:54:07.525Z,102700.06
2023-03-04T07:56:34.495Z,102708.91
2023-03-04T07:59:01.463Z,102709.63
2023-03-04T08:01:34.089Z,102698.81
2023-03-04T08:04:01.939Z,102708.50
2023-03-04T08:06:28.635Z,102713.91
2023-03-04T08:09:04.398Z,102715.53
2023-03-04T08:11:33.024Z,102704.97
2023-03-04T08:13:59.838Z,102714.94
2023-03-04T08:16:26.726Z,102716.78
2023-03-04T08:18:56.723Z,102718.88
2023-03-04T08:21:24.794Z,102724.09
2023-03-04T08:23:52.137Z,102724.41
2023-03-04T08:26:25.598Z,102727.41
2023-03-04T08:28:53.519Z,102724.16
2023-03-04T08:31:20.780Z,102721.38
2023-03-04T08:33:47.486Z,102720.47
2023-03-04T08:36:15.753Z,102729.75
2023-03-04T08:38:42.704Z,102726.91
2023-03-04T08:41:09.503Z,102724.63
2023-03-04T08:43:36.111Z,102719.53
2023-03-04T08:46:03.905Z,102720.31
2023-03-04T08:48:31.861Z,102724.44
2023-03-04T08:50:58.870Z,102722.88
2023-03-04T08:53:25.429Z,102718.41
2023-03-04T08:55:53.070Z,102725.81
2023-03-04T08:58:19.679Z,102721.31
2023-03-04T09:00:48.442Z,102721.38
2023-03-04T09:03:16.373Z,102717.66
2023-03-04T09:05:44.715Z,102720.91
2023-03-04T09:08:11.273Z,102721.31
2023-03-04T09:10:37.846Z,102722.41
2023-03-04T09:13:04.553Z,102714.03
2023-03-04T09:15:31.103Z,102710.31
2023-03-04T09:17:57.627Z,102717.44
2023-03-04T09:20:24.222Z,102706.97
2023-03-04T09:22:50.664Z,102714.38
2023-03-04T09:25:17.225Z,102711.00
2023-03-04T09:27:43.847Z,102718.09
2023-03-04T09:30:11.982Z,102706.38
2023-03-04T09:32:38.574Z,102719.91
2023-03-04T09:35:05.549Z,102710.16
2023-03-04T09:37:32.225Z,102714.38
2023-03-04T09:39:58.806Z,102709.34
2023-03-04T09:42:30.443Z,102709.13
2023-03-04T09:44:57.612Z,102706.75
2023-03-04T09:47:26.162Z,102706.00
2023-03-04T09:50:02.278Z,102700.72
2023-03-04T09:53:01.732Z,102704.44
2023-03-04T09:55:44.087Z,102699.81
2023-03-04T09:58:38.456Z,102695.88
2023-03-04T10:01:20.303Z,102691.44
2023-03-04T10:03:53.748Z,102689.41
2023-03-04T10:06:23.398Z,102681.16
2023-03-04T10:09:00.402Z,102689.34
2023-03-04T10:11:32.886Z,102683.44
2023-03-04T10:14:21.428Z,102684.03
2023-03-04T10:17:06.674Z,102677.78
2023-03-04T10:19:52.313Z,102681.09
2023-03-04T10:22:43.570Z,102680.75
2023-03-04T10:25:27.826Z,102674.75
2023-03-04T10:27:56.268Z,102669.25
2023-03-04T10:30:40.788Z,102665.63
2023-03-04T10:33:16.076Z,102673.47
2023-03-04T10:35:46.589Z,102674.88
2023-03-04T10:38:13.745Z,102671.41
2023-03-04T10:40:41.802Z,102671.03
2023-03-04T10:43:19.539Z,102671.41
2023-03-04T10:45:49.036Z,102656.22
2023-03-04T10:48:43.633Z,102665.03
2023-03-04T10:51:21.957Z,102674.16
2023-03-04T10:54:00.725Z,102666.97
2023-03-04T10:56:45.552Z,102665.44
2023-03-04T10:59:32.167Z,102660.44
2023-03-04T11:01:59.893Z,102660.22
2023-03-04T11:04:32.424Z,102657.13
2023-03-04T11:06:59.003Z,102659.34
2023-03-04T11:09:31.064Z,102662.66
2023-03-04T11:12:01.883Z,102658.75
2023-03-04T11:14:37.062Z,102669.88
2023-03-04T11:17:42.087Z,102661.84
2023-03-04T11:20:25.279Z,102660.81
2023-03-04T11:22:54.464Z,102655.84
2023-03-04T11:25:29.587Z,102657.72
2023-03-04T11:27:59.366Z,102659.16
2023-03-04T11:30:34.389Z,102659.44
2023-03-04T11:33:25.502Z,102658.16
2023-03-04T11:36:12.077Z,102665.66
2023-03-04T11:38:44.361Z,102666.69
2023-03-04T11:41:19.226Z,102669.50
2023-03-04T11:43:47.269Z,102656.44
2023-03-04T11:46:42.967Z,102648.72
2023-03-04T11:49:46.960Z,102652.16
2023-03-04T11:52:21.032Z,102643.59
2023-03-04T11:55:05.732Z,102646.34
2023-03-04T11:57:56.881Z,102635.47
2023-03-04T12:00:41.639Z,102634.84
2023-03-04T12:03:42.196Z,102624.44
2023-03-04T12:06:27.921Z,102625.56
2023-03-04T12:09:19.456Z,102622.34
2023-03-04T12:11:53.805Z,102623.81
2023-03-04T12:14:46.605Z,102608.56
2023-03-04T12:17:49.171Z,102618.94
2023-03-04T12:20:35.415Z,102626.94
2023-03-04T12:23:17.158Z,102625.59
2023-03-04T12:26:00.580Z,102625.09
2023-03-04T12:28:43.276Z,102621.00
2023-03-04T12:31:22.396Z,102623.81
2023-03-04T12:33:48.905Z,102627.00
2023-03-04T12:36:24.204Z,102615.09
2023-03-04T12:38:58.634Z,102617.78
2023-03-04T12:41:44.066Z,102604.75
2023-03-04T12:44:21.203Z,102607.91
2023-03-04T12:47:17.233Z,102590.47
2023-03-04T12:50:13.151Z,102597.22
2023-03-04T12:52:53.255Z,102594.63
2023-03-04T12:55:26.651Z,102592.28
2023-03-04T12:57:57.266Z,102589.34
2023-03-04T13:00:32.724Z,102575.84
2023-03-04T13:03:20.233Z,102578.69
2023-03-04T13:06:03.830Z,102580.97
2023-03-04T13:08:41.130Z,102581.72
2023-03-04T13:11:28.459Z,102596.13
2023-03-04T13:14:03.403Z,102587.75
2023-03-04T13:16:39.727Z,102589.25
2023-03-04T13:19:44.537Z,102590.25
2023-03-04T13:22:28.075Z,102587.53
2023-03-04T13:24:56.430Z,102590.41
2023-03-04T13:27:44.690Z,102586.53
2023-03-04T13:30:33.447Z,102589.72
2023-03-04T13:33:08.983Z,102584.81
2023-03-04T13:35:50.718Z,102588.75
2023-03-04T13:38:37.425Z,102573.34
2023-03-04T13:41:16.291Z,102583.44
2023-03-04T13:43:43.636Z,102577.31
2023-03-04T13:46:19.267Z,102574.94
2023-03-04T13:48:51.798Z,102577.75
2023-03-04T13:51:43.031Z,102578.44
2023-03-04T13:54:31.677Z,102566.41
2023-03-04T13:57:01.202Z,102562.44
2023-03-04T13:59:55.498Z,102559.31
2023-03-04T14:02:25.636Z,102550.44
2023-03-04T14:04:54.954Z,102556.81
2023-03-04T14:07:28.133Z,102561.81
2023-03-04T14:10:04.774Z,102556.50
2023-03-04T14:12:34.765Z,102551.97
2023-03-04T14:15:05.378Z,102555.81
2023-03-04T14:17:36.931Z,102550.06
2023-03-04T14:20:05.736Z,102549.28
2023-03-04T14:22:38.763Z,102557.69
2023-03-04T14:25:14.350Z,102554.47
2023-03-04T14:27:41.291Z,102544.84
2023-03-04T14:30:41.661Z,102549.34
2023-03-04T14:33:15.745Z,102552.13
2023-03-04T14:35:48.287Z,102550.91
2023-03-04T14:38:35.332Z,102549.81
2023-03-04T14:41:06.762Z,102539.22
2023-03-04T14:43:51.604Z,102536.81
2023-03-04T14:46:19.710Z,102538.59
2023-03-04T14:48:50.741Z,102544.56
2023-03-04T14:51:30.150Z,102527.94
2023-03-04T14:53:57.229Z,102520.75
2023-03-04T14:56:33.507Z,102527.22
2023-03-04T14:59:00.258Z,102516.22
2023-03-04T15:01:35.809Z,102523.72
2023-03-04T15:04:14.006Z,102516.63
2023-03-04T15:06:53.426Z,102523.44
2023-03-04T15:09:26.952Z,102528.66
2023-03-04T15:11:57.083Z,102525.25
2023-03-04T15:14:41.896Z,102515.66
2023-03-04T15:17:37.423Z,102522.28
2023-03-04T15:20:09.635Z,102526.38
2023-03-04T15:23:03.786Z,102520.59
2023-03-04T15:25:30.529Z,102507.56
2023-03-04T15:27:57.942Z,102515.59
2023-03-04T15:30:30.220Z,102519.94
2023-03-04T15:32:58.390Z,102512.69
2023-03-04T15:35:28.005Z,102519.66
2023-03-04T15:37:55.639Z,102510.06
2023-03-04T15:40:34.327Z,102510.34
2023-03-04T15:43:03.944Z,102506.03
2023-03-04T15:45:36.015Z,102502.84
2023-03-04T15:48:08.116Z,102499.34
2023-03-04T15:50:37.404Z,102501.50
2023-03-04T15:53:08.645Z,102508.00
2023-03-04T15:55:35.578Z,102497.00
2023-03-04T15:58:03.681Z,102495.97
2023-03-04T16:00:32.079Z,102499.56
2023-03-04T16:02:58.768Z,102496.38
2023-03-04T16:05:25.258Z,102498.53
2023-03-04T16:07:52.532Z,102495.34
2023-03-04T16:10:27.321Z,102488.94
2023-03-04T16:12:54.727Z,102494.09
2023-03-04T16:15:24.062Z,102490.59
2023-03-04T16:17:50.698Z,102489.38
2023-03-04T16:20:20.542Z,102484.84
2023-03-04T16:22:49.768Z,102486.50
2023-03-04T16:25:17.724Z,102484.97
2023-03-04T16:27:44.741Z,102484.81
2023-03-04T16:30:16.988Z,102480.81
2023-03-04T16:32:44.110Z,102484.31
2023-03-04T16:35:11.771Z,102480.81
2023-03-04T16:37:38.901Z,102481.63
2023-03-04T16:40:06.514Z,102478.13
2023-03-04T16:42:33.521Z,102481.09
2023-03-04T16:45:00.294Z,102487.34
2023-03-04T16:47:27.873Z,102480.94
2023-03-04T16:49:54.614Z,102475.63
2023-03-04T16:52:25.970Z,102475.75
2023-03-04T16:54:52.923Z,102480.13
2023-03-04T16:57:19.905Z,102478.56
2023-03-04T16:59:46.683Z,102479.41
2023-03-04T17:02:17.458Z,102475.19
2023-03-04T17:04:45.430Z,102483.59
2023-03-04T17:07:12.172Z,102477.75
2023-03-04T17:09:39.330Z,102476.69
2023-03-04T17:12:07.982Z,102480.25
2023-03-04T17:14:37.993Z,102486.50
2023-03-04T17:17:06.533Z,102483.06
2023-03-04T17:19:33.418Z,102486.59
2023-03-04T17:22:01.147Z,102484.72
2023-03-04T17:24:27.946Z,102485.59
2023-03-04T17:26:54.572Z,102491.53
2023-03-04T17:29:21.106Z,102494.00
2023-03-04T17:31:47.569Z,102488.66
2023-03-04T17:34:14.073Z,102494.09
2023-03-04T17:36:40.850Z,102500.03
2023-03-04T17:39:07.798Z,102499.28
2023-03-04T17:41:36.141Z,102501.44
2023-03-04T17:44:03.239Z,102509.22
2023-03-04T17:46:30.101Z,102513.50
2023-03-04T17:48:59.258Z,102515.91
2023-03-04T17:51:37.014Z,102512.69
2023-03-04T17:54:05.668Z,102520.84
2023-03-04T17:56:33.740Z,102518.66
2023-03-04T17:59:01.915Z,102514.41
2023-03-04T18:01:28.605Z,102517.09
2023-03-04T18:03:55.604Z,102517.09
2023-03-04T18:06:24.163Z,102514.69
2023-03-04T18:08:54.179Z,102512.56
2023-03-04T18:11:22.258Z,102523.84
2023-03-04T18:13:49.421Z,102524.13
2023-03-04T18:16:19.054Z,102521.72
2023-03-04T18:18:45.824Z,102525.22
2023-03-04T18:21:13.516Z,102526.56
2023-03-04T18:23:39.986Z,102532.22
2023-03-04T18:26:06.668Z,102530.16
2023-03-04T18:28:33.080Z,102533.91
2023-03-04T18:31:01.157Z,102522.09
2023-03-04T18:33:29.211Z,102527.75
2023-03-04T18:36:07.258Z,102530.72
2023-03-04T18:38:34.048Z,102523.19
2023-03-04T18:41:04.053Z,102532.63
2023-03-04T18:43:30.528Z,102530.22
2023-03-04T18:46:23.013Z,102517.06
2023-03-04T18:48:53.914Z,102520.78
2023-03-04T18:51:21.511Z,102515.16
2023-03-04T18:53:48.120Z,102510.56
2023-03-04T18:56:37.593Z,102515.94
2023-03-04T18:59:18.188Z,102513.53
2023-03-04T19:01:45.680Z,102515.69
2023-03-04T19:04:14.247Z,102518.41
2023-03-04T19:06:40.819Z,102517.09
2023-03-04T19:09:07.428Z,102514.16
2023-03-04T19:11:34.253Z,102517.38
2023-03-04T19:14:01.014Z,102513.34
2023-03-04T19:16:28.116Z,102512.81
2023-03-04T19:18:54.595Z,102511.50
2023-03-04T19:21:21.102Z,102509.38
2023-03-04T19:23:47.597Z,102509.91
2023-03-04T19:26:15.411Z,102501.06
2023-03-04T19:28:42.282Z,102508.88
2023-03-04T19:31:11.335Z,102504.59
2023-03-04T19:33:39.434Z,102502.19
2023-03-04T19:36:07.895Z,102497.91
2023-03-04T19:38:34.930Z,102496.56
2023-03-04T19:41:09.997Z,102495.78
2023-03-04T19:43:37.252Z,102494.97
2023-03-04T19:46:03.804Z,102498.72
2023-03-04T19:48:30.589Z,102498.72
2023-03-04T19:50:57.158Z,102499.50
2023-03-04T19:53:23.561Z,102501.41
2023-03-04T19:55:50.102Z,102505.97
2023-03-04T19:58:16.823Z,102505.94
2023-03-04T20:00:43.332Z,102499.22
2023-03-04T20:03:09.962Z,102509.94
2023-03-04T20:05:36.910Z,102507.50
2023-03-04T20:08:03.650Z,102511.53
2023-03-04T20:10:38.138Z,102499.19
2023-03-04T20:13:06.192Z,102500.81
2023-03-04T20:15:35.114Z,102497.59
2023-03-04T20:18:02.125Z,102498.16
2023-03-04T20:20:29.402Z,102505.69
2023-03-04T20:22:56.638Z,102507.00
2023-03-04T20:25:24.648Z,102512.94
2023-03-04T20:27:51.126Z,102508.41
2023-03-04T20:30:18.103Z,102507.03
2023-03-04T20:32:45.536Z,102508.94
2023-03-04T20:35:15.026Z,102505.72
2023-03-04T20:37:42.340Z,102507.88
2023-03-04T20:40:13.338Z,102509.22
2023-03-04T20:42:39.945Z,102505.22
2023-03-04T20:45:07.389Z,102508.97
2023-03-04T20:47:34.037Z,102511.13
2023-03-04T20:50:00.550Z,102514.06
2023-03-04T20:52:26.992Z,102504.41
2023-03-04T20:54:53.508Z,102507.38
2023-03-04T20:57:20.290Z,102501.44
2023-03-04T20:59:46.925Z,102505.22
2023-03-04T21:02:15.140Z,102499.34
2023-03-04T21:04:41.620Z,102498.25
2023-03-04T21:07:08.116Z,102494.50
2023-03-04T21:09:34.693Z,102493.66
2023-03-04T21:12:01.284Z,102486.97
2023-03-04T21:14:30.840Z,102487.25
2023-03-04T21:16:59.899Z,102487.50
2023-03-04T21:19:33.042Z,102479.22
2023-03-04T21:22:00.902Z,102476.25
2023-03-04T21:24:30.174Z,102482.16
2023-03-04T21:26:56.791Z,102484.84
2023-03-04T21:29:25.450Z,102477.34
2023-03-04T21:31:56.200Z,102476.00
2023-03-04T21:34:26.959Z,102476.28
2023-03-04T21:36:53.662Z,102475.75
2023-03-04T21:39:22.837Z,102471.19
2023-03-04T21:41:49.628Z,102468.25
2023-03-04T21:44:28.015Z,102474.69
2023-03-04T21:46:57.187Z,102472.03
2023-03-04T21:49:24.040Z,102466.09
2023-03-04T21:51:50.500Z,102468.00
2023-03-04T21:54:17.046Z,102461.81
2023-03-04T21:56:43.517Z,102472.28
2023-03-04T21:59:13.577Z,102464.25
2023-03-04T22:01:41.316Z,102472.28
2023-03-04T22:04:08.277Z,102466.94
2023-03-04T22:06:35.360Z,102464.25
2023-03-04T22:09:03.729Z,102464.25
2023-03-04T22:11:31.008Z,102457.28
2023-03-04T22:14:00.176Z,102463.69
2023-03-04T22:16:28.193Z,102458.63
2023-03-04T22:18:54.900Z,102455.38
2023-03-04T22:21:22.251Z,102462.09
2023-03-04T22:23:49.011Z,102452.16
2023-03-04T22:26:30.029Z,102448.16
2023-03-04T22:28:56.780Z,102448.66
2023-03-04T22:31:34.522Z,102442.78
2023-03-04T22:34:09.590Z,102435.81
2023-03-04T22:36:39.265Z,102438.47
2023-03-04T22:39:08.158Z,102433.38
2023-03-04T22:41:35.286Z,102437.69
2023-03-04T22:44:02.135Z,102434.47
2023-03-04T22:46:31.055Z,102438.50
2023-03-04T22:48:59.651Z,102435.56
2023-03-04T22:51:27.293Z,102434.75
2023-03-04T22:53:54.095Z,102435.03
2023-03-04T22:56:21.380Z,102433.41
2023-03-04T22:58:48.890Z,102429.13
2023-03-04T23:01:17.177Z,102428.88
2023-03-04T23:03:46.191Z,102427.53
2023-03-04T23:06:16.300Z,102421.63
2023-03-04T23:08:45.396Z,102423.22
2023-03-04T23:11:19.960Z,102425.13
2023-03-04T23:13:46.663Z,102416.53
2023-03-04T23:16:13.927Z,102417.59
2023-03-04T23:18:42.371Z,102410.38
2023-03-04T23:21:11.004Z,102402.09
2023-03-04T23:23:38.427Z,102400.72
2023-03-04T23:26:05.791Z,102395.38
2023-03-04T23:28:32.534Z,102391.38
2023-03-04T23:30:59.118Z,102393.78
2023-03-04T23:33:25.816Z,102392.16
2023-03-04T23:35:52.333Z,102392.41
2023-03-04T23:38:18.791Z,102387.06
2023-03-04T23:40:46.412Z,102386.25
2023-03-04T23:43:12.837Z,102390.28
2023-03-04T23:45:39.419Z,102388.41
2023-03-04T23:48:06.201Z,102387.59
2023-03-04T23:50:33.968Z,102384.38
2023-03-04T23:53:00.430Z,102380.91
2023-03-04T23:55:28.565Z,102383.06
2023-03-04T23:57:54.974Z,102376.63
